sensor_id;sensor_type;location;lat;lon;timestamp;P1;durP1;ratioP1;P2;durP2;ratioP2
7029;SDS011;3556;53.500;10.176;2023-06-01T00:00:30;23.73;;;13.00;;
7029;SDS011;3556;53.500;10.176;2023-06-01T00:02:56;24.83;;;12.50;;
7029;SDS011;3556;53.500;10.176;2023-06-01T00:05:21;20.03;;;12.47;;
7029;SDS011;3556;53.500;10.176;2023-06-01T00:07:47;27.63;;;11.90;;
7029;SDS011;3556;53.500;10.176;2023-06-01T00:10:13;28.33;;;12.73;;
7029;SDS011;3556;53.500;10.176;2023-06-01T00:12:38;18.63;;;12.70;;
7029;SDS011;3556;53.500;10.176;2023-06-01T00:15:04;23.13;;;12.63;;
7029;SDS011;3556;53.500;10.176;2023-06-01T00:17:30;37.47;;;13.67;;
7029;SDS011;3556;53.500;10.176;2023-06-01T00:19:57;27.77;;;12.43;;
7029;SDS011;3556;53.500;10.176;2023-06-01T00:22:26;29.03;;;12.57;;
7029;SDS011;3556;53.500;10.176;2023-06-01T00:24:59;29.63;;;12.07;;
7029;SDS011;3556;53.500;10.176;2023-06-01T00:27:25;25.30;;;11.80;;
7029;SDS011;3556;53.500;10.176;2023-06-01T00:29:50;19.83;;;10.90;;
7029;SDS011;3556;53.500;10.176;2023-06-01T00:32:16;26.30;;;11.60;;
7029;SDS011;3556;53.500;10.176;2023-06-01T00:34:42;20.40;;;10.50;;
7029;SDS011;3556;53.500;10.176;2023-06-01T00:37:07;22.47;;;11.27;;
7029;SDS011;3556;53.500;10.176;2023-06-01T00:39:33;25.10;;;11.47;;
7029;SDS011;3556;53.500;10.176;2023-06-01T00:41:58;23.50;;;11.13;;
7029;SDS011;3556;53.500;10.176;2023-06-01T00:44:24;29.00;;;12.17;;
7029;SDS011;3556;53.500;10.176;2023-06-01T00:46:50;27.40;;;12.27;;
7029;SDS011;3556;53.500;10.176;2023-06-01T00:49:16;26.13;;;11.30;;
7029;SDS011;3556;53.500;10.176;2023-06-01T00:51:42;19.80;;;10.50;;
7029;SDS011;3556;53.500;10.176;2023-06-01T00:54:08;17.53;;;10.17;;
7029;SDS011;3556;53.500;10.176;2023-06-01T00:56:34;21.20;;;10.03;;
7029;SDS011;3556;53.500;10.176;2023-06-01T00:59:01;16.93;;;9.80;;
7029;SDS011;3556;53.500;10.176;2023-06-01T01:01:27;16.73;;;9.57;;
7029;SDS011;3556;53.500;10.176;2023-06-01T01:03:52;18.20;;;9.97;;
7029;SDS011;3556;53.500;10.176;2023-06-01T01:09:20;18.80;;;8.80;;
7029;SDS011;3556;53.500;10.176;2023-06-01T01:12:07;25.20;;;9.90;;
7029;SDS011;3556;53.500;10.176;2023-06-01T01:14:59;18.70;;;8.97;;
7029;SDS011;3556;53.500;10.176;2023-06-01T01:17:35;18.97;;;10.20;;
7029;SDS011;3556;53.500;10.176;2023-06-01T01:25:25;17.57;;;8.70;;
7029;SDS011;3556;53.500;10.176;2023-06-01T01:31:01;20.57;;;7.67;;
7029;SDS011;3556;53.500;10.176;2023-06-01T01:33:28;15.13;;;6.90;;
7029;SDS011;3556;53.500;10.176;2023-06-01T01:35:56;15.77;;;7.60;;
7029;SDS011;3556;53.500;10.176;2023-06-01T01:38:23;15.97;;;7.63;;
7029;SDS011;3556;53.500;10.176;2023-06-01T01:40:48;10.10;;;6.40;;
7029;SDS011;3556;53.500;10.176;2023-06-01T01:43:17;14.30;;;6.87;;
7029;SDS011;3556;53.500;10.176;2023-06-01T01:45:47;13.93;;;6.43;;
7029;SDS011;3556;53.500;10.176;2023-06-01T01:48:22;21.47;;;5.80;;
7029;SDS011;3556;53.500;10.176;2023-06-01T01:50:56;12.50;;;5.70;;
7029;SDS011;3556;53.500;10.176;2023-06-01T01:53:26;15.10;;;6.03;;
7029;SDS011;3556;53.500;10.176;2023-06-01T01:55:54;14.93;;;6.10;;
7029;SDS011;3556;53.500;10.176;2023-06-01T01:58:21;10.73;;;5.27;;
7029;SDS011;3556;53.500;10.176;2023-06-01T02:00:48;8.20;;;6.13;;
7029;SDS011;3556;53.500;10.176;2023-06-01T02:03:18;16.07;;;5.97;;
7029;SDS011;3556;53.500;10.176;2023-06-01T02:05:44;20.50;;;6.67;;
7029;SDS011;3556;53.500;10.176;2023-06-01T02:08:10;12.07;;;6.80;;
7029;SDS011;3556;53.500;10.176;2023-06-01T02:10:36;16.30;;;7.57;;
7029;SDS011;3556;53.500;10.176;2023-06-01T02:13:02;15.70;;;7.60;;
7029;SDS011;3556;53.500;10.176;2023-06-01T02:15:28;16.10;;;8.03;;
7029;SDS011;3556;53.500;10.176;2023-06-01T02:17:54;16.50;;;7.50;;
7029;SDS011;3556;53.500;10.176;2023-06-01T02:20:19;14.27;;;7.60;;
7029;SDS011;3556;53.500;10.176;2023-06-01T02:22:45;24.50;;;9.07;;
7029;SDS011;3556;53.500;10.176;2023-06-01T02:25:11;22.23;;;8.10;;
7029;SDS011;3556;53.500;10.176;2023-06-01T02:27:36;15.57;;;7.97;;
7029;SDS011;3556;53.500;10.176;2023-06-01T02:30:03;24.80;;;8.93;;
7029;SDS011;3556;53.500;10.176;2023-06-01T02:32:31;17.67;;;7.83;;
7029;SDS011;3556;53.500;10.176;2023-06-01T02:34:57;14.00;;;6.70;;
7029;SDS011;3556;53.500;10.176;2023-06-01T02:37:23;15.70;;;7.00;;
7029;SDS011;3556;53.500;10.176;2023-06-01T02:39:48;15.13;;;6.17;;
7029;SDS011;3556;53.500;10.176;2023-06-01T02:42:14;14.00;;;6.37;;
7029;SDS011;3556;53.500;10.176;2023-06-01T02:44:40;17.30;;;6.70;;
7029;SDS011;3556;53.500;10.176;2023-06-01T02:47:05;15.60;;;6.10;;
7029;SDS011;3556;53.500;10.176;2023-06-01T02:49:32;10.63;;;5.83;;
7029;SDS011;3556;53.500;10.176;2023-06-01T02:51:57;20.40;;;6.53;;
7029;SDS011;3556;53.500;10.176;2023-06-01T02:54:23;15.30;;;6.20;;
7029;SDS011;3556;53.500;10.176;2023-06-01T02:56:48;11.57;;;6.27;;
7029;SDS011;3556;53.500;10.176;2023-06-01T02:59:14;16.60;;;6.67;;
7029;SDS011;3556;53.500;10.176;2023-06-01T03:01:40;15.40;;;6.17;;
7029;SDS011;3556;53.500;10.176;2023-06-01T03:04:05;19.37;;;6.93;;
7029;SDS011;3556;53.500;10.176;2023-06-01T03:06:32;16.03;;;6.00;;
7029;SDS011;3556;53.500;10.176;2023-06-01T03:09:01;12.93;;;6.40;;
7029;SDS011;3556;53.500;10.176;2023-06-01T03:11:27;24.27;;;6.50;;
7029;SDS011;3556;53.500;10.176;2023-06-01T03:13:52;17.53;;;5.43;;
7029;SDS011;3556;53.500;10.176;2023-06-01T03:16:18;19.00;;;5.50;;
7029;SDS011;3556;53.500;10.176;2023-06-01T03:18:43;21.43;;;6.07;;
7029;SDS011;3556;53.500;10.176;2023-06-01T03:21:09;17.17;;;5.60;;
7029;SDS011;3556;53.500;10.176;2023-06-01T03:23:35;12.70;;;6.00;;
7029;SDS011;3556;53.500;10.176;2023-06-01T03:26:00;18.07;;;6.37;;
7029;SDS011;3556;53.500;10.176;2023-06-01T03:28:29;9.63;;;5.43;;
7029;SDS011;3556;53.500;10.176;2023-06-01T03:30:54;28.60;;;6.57;;
7029;SDS011;3556;53.500;10.176;2023-06-01T03:33:21;13.47;;;5.87;;
7029;SDS011;3556;53.500;10.176;2023-06-01T03:35:47;14.00;;;5.90;;
7029;SDS011;3556;53.500;10.176;2023-06-01T03:38:14;16.47;;;5.70;;
7029;SDS011;3556;53.500;10.176;2023-06-01T03:40:40;20.87;;;6.93;;
7029;SDS011;3556;53.500;10.176;2023-06-01T03:43:06;24.43;;;6.30;;
7029;SDS011;3556;53.500;10.176;2023-06-01T03:45:31;16.27;;;5.60;;
7029;SDS011;3556;53.500;10.176;2023-06-01T03:47:57;17.60;;;5.70;;
7029;SDS011;3556;53.500;10.176;2023-06-01T03:50:23;15.67;;;6.03;;
7029;SDS011;3556;53.500;10.176;2023-06-01T03:52:48;12.03;;;5.33;;
7029;SDS011;3556;53.500;10.176;2023-06-01T03:55:14;17.73;;;5.37;;
7029;SDS011;3556;53.500;10.176;2023-06-01T03:57:40;15.23;;;4.77;;
7029;SDS011;3556;53.500;10.176;2023-06-01T04:00:06;11.43;;;4.97;;
7029;SDS011;3556;53.500;10.176;2023-06-01T04:02:46;12.13;;;5.37;;
7029;SDS011;3556;53.500;10.176;2023-06-01T04:05:17;13.43;;;5.00;;
7029;SDS011;3556;53.500;10.176;2023-06-01T04:07:50;17.67;;;5.60;;
7029;SDS011;3556;53.500;10.176;2023-06-01T04:10:17;17.83;;;6.23;;
7029;SDS011;3556;53.500;10.176;2023-06-01T04:12:43;25.40;;;6.50;;
7029;SDS011;3556;53.500;10.176;2023-06-01T04:15:10;20.07;;;6.20;;
7029;SDS011;3556;53.500;10.176;2023-06-01T04:17:37;14.33;;;5.53;;
7029;SDS011;3556;53.500;10.176;2023-06-01T04:20:10;13.23;;;5.73;;
7029;SDS011;3556;53.500;10.176;2023-06-01T04:22:43;17.60;;;5.70;;
7029;SDS011;3556;53.500;10.176;2023-06-01T04:25:10;19.60;;;5.67;;
7029;SDS011;3556;53.500;10.176;2023-06-01T04:27:37;17.30;;;5.00;;
7029;SDS011;3556;53.500;10.176;2023-06-01T04:30:09;10.70;;;4.90;;
7029;SDS011;3556;53.500;10.176;2023-06-01T04:32:36;18.27;;;5.13;;
7029;SDS011;3556;53.500;10.176;2023-06-01T04:35:05;20.73;;;5.30;;
7029;SDS011;3556;53.500;10.176;2023-06-01T04:37:32;18.93;;;5.80;;
7029;SDS011;3556;53.500;10.176;2023-06-01T04:40:00;22.63;;;5.63;;
7029;SDS011;3556;53.500;10.176;2023-06-01T04:42:36;13.60;;;5.83;;
7029;SDS011;3556;53.500;10.176;2023-06-01T04:45:13;27.83;;;6.93;;
7029;SDS011;3556;53.500;10.176;2023-06-01T04:47:40;16.43;;;6.93;;
7029;SDS011;3556;53.500;10.176;2023-06-01T04:50:10;17.80;;;6.13;;
7029;SDS011;3556;53.500;10.176;2023-06-01T04:52:39;22.67;;;6.10;;
7029;SDS011;3556;53.500;10.176;2023-06-01T04:55:07;14.30;;;5.67;;
7029;SDS011;3556;53.500;10.176;2023-06-01T04:57:34;10.47;;;5.73;;
7029;SDS011;3556;53.500;10.176;2023-06-01T05:00:04;19.07;;;6.03;;
7029;SDS011;3556;53.500;10.176;2023-06-01T05:02:36;15.37;;;6.50;;
7029;SDS011;3556;53.500;10.176;2023-06-01T05:05:02;12.80;;;5.87;;
7029;SDS011;3556;53.500;10.176;2023-06-01T05:07:29;21.00;;;5.97;;
7029;SDS011;3556;53.500;10.176;2023-06-01T05:09:55;17.80;;;5.47;;
7029;SDS011;3556;53.500;10.176;2023-06-01T05:12:20;18.67;;;6.70;;
7029;SDS011;3556;53.500;10.176;2023-06-01T05:14:46;18.27;;;6.70;;
7029;SDS011;3556;53.500;10.176;2023-06-01T05:17:12;18.50;;;7.10;;
7029;SDS011;3556;53.500;10.176;2023-06-01T05:19:37;12.70;;;6.20;;
7029;SDS011;3556;53.500;10.176;2023-06-01T05:22:04;15.67;;;6.13;;
7029;SDS011;3556;53.500;10.176;2023-06-01T05:24:29;17.47;;;5.63;;
7029;SDS011;3556;53.500;10.176;2023-06-01T05:26:55;17.53;;;6.30;;
7029;SDS011;3556;53.500;10.176;2023-06-01T05:29:21;15.47;;;5.63;;
7029;SDS011;3556;53.500;10.176;2023-06-01T05:31:47;23.63;;;5.57;;
7029;SDS011;3556;53.500;10.176;2023-06-01T05:34:14;10.87;;;6.10;;
7029;SDS011;3556;53.500;10.176;2023-06-01T05:36:39;23.53;;;6.20;;
7029;SDS011;3556;53.500;10.176;2023-06-01T05:39:06;15.73;;;5.83;;
7029;SDS011;3556;53.500;10.176;2023-06-01T05:41:31;20.77;;;6.43;;
7029;SDS011;3556;53.500;10.176;2023-06-01T05:43:57;21.17;;;5.93;;
7029;SDS011;3556;53.500;10.176;2023-06-01T05:46:22;19.73;;;6.37;;
7029;SDS011;3556;53.500;10.176;2023-06-01T05:48:49;21.03;;;6.70;;
7029;SDS011;3556;53.500;10.176;2023-06-01T05:51:16;13.10;;;5.40;;
7029;SDS011;3556;53.500;10.176;2023-06-01T05:53:42;15.73;;;6.40;;
7029;SDS011;3556;53.500;10.176;2023-06-01T05:56:08;15.87;;;6.90;;
7029;SDS011;3556;53.500;10.176;2023-06-01T05:58:33;15.27;;;6.23;;
7029;SDS011;3556;53.500;10.176;2023-06-01T06:00:59;12.70;;;6.00;;
7029;SDS011;3556;53.500;10.176;2023-06-01T06:03:25;18.83;;;6.60;;
7029;SDS011;3556;53.500;10.176;2023-06-01T06:05:51;23.03;;;6.50;;
7029;SDS011;3556;53.500;10.176;2023-06-01T06:08:17;22.37;;;5.87;;
7029;SDS011;3556;53.500;10.176;2023-06-01T06:10:43;13.13;;;5.20;;
7029;SDS011;3556;53.500;10.176;2023-06-01T06:13:10;10.23;;;5.63;;
7029;SDS011;3556;53.500;10.176;2023-06-01T06:15:36;12.10;;;5.70;;
7029;SDS011;3556;53.500;10.176;2023-06-01T06:18:01;17.70;;;6.00;;
7029;SDS011;3556;53.500;10.176;2023-06-01T06:20:27;22.63;;;5.20;;
7029;SDS011;3556;53.500;10.176;2023-06-01T06:22:53;20.47;;;5.40;;
7029;SDS011;3556;53.500;10.176;2023-06-01T06:25:19;19.13;;;4.83;;
7029;SDS011;3556;53.500;10.176;2023-06-01T06:27:45;16.20;;;5.47;;
7029;SDS011;3556;53.500;10.176;2023-06-01T06:30:11;11.57;;;4.73;;
7029;SDS011;3556;53.500;10.176;2023-06-01T06:32:37;12.27;;;4.57;;
7029;SDS011;3556;53.500;10.176;2023-06-01T06:35:03;18.57;;;4.80;;
7029;SDS011;3556;53.500;10.176;2023-06-01T06:37:29;10.73;;;4.20;;
7029;SDS011;3556;53.500;10.176;2023-06-01T06:39:55;18.63;;;4.53;;
7029;SDS011;3556;53.500;10.176;2023-06-01T06:42:21;20.00;;;5.27;;
7029;SDS011;3556;53.500;10.176;2023-06-01T06:44:46;19.90;;;5.13;;
7029;SDS011;3556;53.500;10.176;2023-06-01T06:47:12;13.13;;;3.83;;
7029;SDS011;3556;53.500;10.176;2023-06-01T06:49:40;11.83;;;4.27;;
7029;SDS011;3556;53.500;10.176;2023-06-01T06:52:08;13.97;;;4.77;;
7029;SDS011;3556;53.500;10.176;2023-06-01T06:54:34;19.83;;;4.33;;
7029;SDS011;3556;53.500;10.176;2023-06-01T06:57:00;12.07;;;4.43;;
7029;SDS011;3556;53.500;10.176;2023-06-01T06:59:28;7.40;;;4.20;;
7029;SDS011;3556;53.500;10.176;2023-06-01T07:01:53;16.53;;;4.60;;
7029;SDS011;3556;53.500;10.176;2023-06-01T07:04:19;15.93;;;4.60;;
7029;SDS011;3556;53.500;10.176;2023-06-01T07:06:45;8.50;;;4.60;;
7029;SDS011;3556;53.500;10.176;2023-06-01T07:09:11;16.90;;;4.90;;
7029;SDS011;3556;53.500;10.176;2023-06-01T07:11:36;16.30;;;4.73;;
7029;SDS011;3556;53.500;10.176;2023-06-01T07:14:02;14.83;;;5.30;;
7029;SDS011;3556;53.500;10.176;2023-06-01T07:16:27;12.70;;;4.43;;
7029;SDS011;3556;53.500;10.176;2023-06-01T07:18:54;18.60;;;5.00;;
7029;SDS011;3556;53.500;10.176;2023-06-01T07:21:21;11.77;;;4.70;;
7029;SDS011;3556;53.500;10.176;2023-06-01T07:23:46;8.80;;;4.90;;
7029;SDS011;3556;53.500;10.176;2023-06-01T07:26:12;15.60;;;4.37;;
7029;SDS011;3556;53.500;10.176;2023-06-01T07:28:38;12.30;;;4.27;;
7029;SDS011;3556;53.500;10.176;2023-06-01T07:31:03;15.93;;;4.93;;
7029;SDS011;3556;53.500;10.176;2023-06-01T07:33:30;11.30;;;5.10;;
7029;SDS011;3556;53.500;10.176;2023-06-01T07:35:58;14.80;;;4.67;;
7029;SDS011;3556;53.500;10.176;2023-06-01T07:38:24;13.00;;;5.00;;
7029;SDS011;3556;53.500;10.176;2023-06-01T07:40:50;20.43;;;4.57;;
7029;SDS011;3556;53.500;10.176;2023-06-01T07:43:16;10.43;;;4.10;;
7029;SDS011;3556;53.500;10.176;2023-06-01T07:45:42;13.03;;;4.63;;
7029;SDS011;3556;53.500;10.176;2023-06-01T07:48:07;11.00;;;4.70;;
7029;SDS011;3556;53.500;10.176;2023-06-01T07:50:33;13.83;;;4.33;;
7029;SDS011;3556;53.500;10.176;2023-06-01T07:52:59;13.53;;;4.77;;
7029;SDS011;3556;53.500;10.176;2023-06-01T07:55:25;13.23;;;4.20;;
7029;SDS011;3556;53.500;10.176;2023-06-01T07:57:51;11.60;;;4.13;;
7029;SDS011;3556;53.500;10.176;2023-06-01T08:00:17;11.23;;;4.27;;
7029;SDS011;3556;53.500;10.176;2023-06-01T08:02:43;10.40;;;4.53;;
7029;SDS011;3556;53.500;10.176;2023-06-01T08:05:09;13.67;;;4.33;;
7029;SDS011;3556;53.500;10.176;2023-06-01T08:07:36;12.33;;;4.30;;
7029;SDS011;3556;53.500;10.176;2023-06-01T08:10:03;13.50;;;3.80;;
7029;SDS011;3556;53.500;10.176;2023-06-01T08:12:30;9.00;;;4.40;;
7029;SDS011;3556;53.500;10.176;2023-06-01T08:14:56;14.37;;;4.23;;
7029;SDS011;3556;53.500;10.176;2023-06-01T08:17:23;14.00;;;4.50;;
7029;SDS011;3556;53.500;10.176;2023-06-01T08:19:49;10.23;;;4.30;;
7029;SDS011;3556;53.500;10.176;2023-06-01T08:22:16;17.03;;;4.90;;
7029;SDS011;3556;53.500;10.176;2023-06-01T08:24:42;6.63;;;4.33;;
7029;SDS011;3556;53.500;10.176;2023-06-01T08:27:17;11.73;;;4.30;;
7029;SDS011;3556;53.500;10.176;2023-06-01T08:29:48;12.77;;;3.70;;
7029;SDS011;3556;53.500;10.176;2023-06-01T08:32:15;8.23;;;3.70;;
7029;SDS011;3556;53.500;10.176;2023-06-01T08:34:44;10.50;;;3.40;;
7029;SDS011;3556;53.500;10.176;2023-06-01T08:37:11;10.60;;;3.60;;
7029;SDS011;3556;53.500;10.176;2023-06-01T08:39:38;24.53;;;4.00;;
7029;SDS011;3556;53.500;10.176;2023-06-01T08:44:41;9.17;;;3.23;;
7029;SDS011;3556;53.500;10.176;2023-06-01T08:47:07;21.20;;;4.27;;
7029;SDS011;3556;53.500;10.176;2023-06-01T08:49:33;11.70;;;3.50;;
7029;SDS011;3556;53.500;10.176;2023-06-01T08:52:07;11.37;;;3.63;;
7029;SDS011;3556;53.500;10.176;2023-06-01T08:54:37;13.67;;;3.60;;
7029;SDS011;3556;53.500;10.176;2023-06-01T08:57:04;13.17;;;3.50;;
7029;SDS011;3556;53.500;10.176;2023-06-01T08:59:32;17.43;;;4.30;;
7029;SDS011;3556;53.500;10.176;2023-06-01T09:01:59;14.43;;;3.77;;
7029;SDS011;3556;53.500;10.176;2023-06-01T09:04:26;12.80;;;3.33;;
7029;SDS011;3556;53.500;10.176;2023-06-01T09:06:51;10.93;;;3.80;;
7029;SDS011;3556;53.500;10.176;2023-06-01T09:09:17;7.40;;;3.20;;
7029;SDS011;3556;53.500;10.176;2023-06-01T09:11:43;13.60;;;3.43;;
7029;SDS011;3556;53.500;10.176;2023-06-01T09:14:19;15.23;;;3.37;;
7029;SDS011;3556;53.500;10.176;2023-06-01T09:16:49;9.70;;;2.70;;
7029;SDS011;3556;53.500;10.176;2023-06-01T09:19:15;7.73;;;2.70;;
7029;SDS011;3556;53.500;10.176;2023-06-01T09:21:59;16.00;;;3.73;;
7029;SDS011;3556;53.500;10.176;2023-06-01T09:24:25;14.87;;;3.70;;
7029;SDS011;3556;53.500;10.176;2023-06-01T09:26:51;16.13;;;3.27;;
7029;SDS011;3556;53.500;10.176;2023-06-01T09:29:25;10.50;;;3.23;;
7029;SDS011;3556;53.500;10.176;2023-06-01T09:31:51;11.10;;;3.17;;
7029;SDS011;3556;53.500;10.176;2023-06-01T09:34:17;10.37;;;2.83;;
7029;SDS011;3556;53.500;10.176;2023-06-01T09:36:44;7.40;;;2.87;;
7029;SDS011;3556;53.500;10.176;2023-06-01T09:39:14;6.23;;;2.83;;
7029;SDS011;3556;53.500;10.176;2023-06-01T09:41:44;7.50;;;2.80;;
7029;SDS011;3556;53.500;10.176;2023-06-01T09:44:10;8.50;;;3.17;;
7029;SDS011;3556;53.500;10.176;2023-06-01T09:46:46;8.90;;;2.80;;
7029;SDS011;3556;53.500;10.176;2023-06-01T09:49:18;12.60;;;2.60;;
7029;SDS011;3556;53.500;10.176;2023-06-01T09:51:45;11.80;;;2.70;;
7029;SDS011;3556;53.500;10.176;2023-06-01T09:54:21;12.90;;;3.10;;
7029;SDS011;3556;53.500;10.176;2023-06-01T09:56:47;6.70;;;2.50;;
7029;SDS011;3556;53.500;10.176;2023-06-01T09:59:14;13.30;;;3.10;;
7029;SDS011;3556;53.500;10.176;2023-06-01T10:01:40;5.83;;;2.60;;
7029;SDS011;3556;53.500;10.176;2023-06-01T10:04:07;13.33;;;2.90;;
7029;SDS011;3556;53.500;10.176;2023-06-01T10:06:37;4.23;;;3.10;;
7029;SDS011;3556;53.500;10.176;2023-06-01T10:09:06;12.80;;;3.30;;
7029;SDS011;3556;53.500;10.176;2023-06-01T10:11:40;11.13;;;3.13;;
7029;SDS011;3556;53.500;10.176;2023-06-01T10:14:06;12.90;;;3.50;;
7029;SDS011;3556;53.500;10.176;2023-06-01T10:16:33;7.63;;;3.27;;
7029;SDS011;3556;53.500;10.176;2023-06-01T10:19:00;7.67;;;3.23;;
7029;SDS011;3556;53.500;10.176;2023-06-01T10:21:26;13.23;;;3.63;;
7029;SDS011;3556;53.500;10.176;2023-06-01T10:23:53;7.47;;;2.87;;
7029;SDS011;3556;53.500;10.176;2023-06-01T10:26:19;10.03;;;3.40;;
7029;SDS011;3556;53.500;10.176;2023-06-01T10:28:46;11.30;;;3.20;;
7029;SDS011;3556;53.500;10.176;2023-06-01T10:34:02;8.70;;;3.00;;
7029;SDS011;3556;53.500;10.176;2023-06-01T10:39:26;14.77;;;3.47;;
7029;SDS011;3556;53.500;10.176;2023-06-01T10:41:53;9.40;;;3.67;;
7029;SDS011;3556;53.500;10.176;2023-06-01T10:52:32;12.57;;;3.50;;
7029;SDS011;3556;53.500;10.176;2023-06-01T11:07:58;11.77;;;3.23;;
7029;SDS011;3556;53.500;10.176;2023-06-01T11:13:18;7.70;;;2.50;;
7029;SDS011;3556;53.500;10.176;2023-06-01T11:21:48;8.50;;;2.80;;
7029;SDS011;3556;53.500;10.176;2023-06-01T11:24:09;9.63;;;2.93;;
7029;SDS011;3556;53.500;10.176;2023-06-01T11:29:10;6.50;;;2.77;;
7029;SDS011;3556;53.500;10.176;2023-06-01T11:31:52;8.77;;;3.10;;
7029;SDS011;3556;53.500;10.176;2023-06-01T11:34:24;12.40;;;3.10;;
7029;SDS011;3556;53.500;10.176;2023-06-01T11:37:02;6.23;;;2.70;;
7029;SDS011;3556;53.500;10.176;2023-06-01T11:39:29;11.80;;;3.00;;
7029;SDS011;3556;53.500;10.176;2023-06-01T11:42:04;8.67;;;2.87;;
7029;SDS011;3556;53.500;10.176;2023-06-01T11:44:35;7.80;;;3.00;;
7029;SDS011;3556;53.500;10.176;2023-06-01T11:47:02;4.87;;;2.77;;
7029;SDS011;3556;53.500;10.176;2023-06-01T11:49:30;13.67;;;3.50;;
7029;SDS011;3556;53.500;10.176;2023-06-01T11:52:04;8.80;;;2.80;;
7029;SDS011;3556;53.500;10.176;2023-06-01T11:54:33;6.33;;;2.93;;
7029;SDS011;3556;53.500;10.176;2023-06-01T11:56:59;13.83;;;3.13;;
7029;SDS011;3556;53.500;10.176;2023-06-01T11:59:36;6.50;;;2.40;;
7029;SDS011;3556;53.500;10.176;2023-06-01T12:02:03;12.20;;;2.80;;
7029;SDS011;3556;53.500;10.176;2023-06-01T12:04:40;10.33;;;3.00;;
7029;SDS011;3556;53.500;10.176;2023-06-01T12:07:05;7.90;;;2.40;;
7029;SDS011;3556;53.500;10.176;2023-06-01T12:09:32;12.90;;;2.43;;
7029;SDS011;3556;53.500;10.176;2023-06-01T12:11:59;9.43;;;2.50;;
7029;SDS011;3556;53.500;10.176;2023-06-01T12:14:25;7.97;;;2.83;;
7029;SDS011;3556;53.500;10.176;2023-06-01T12:16:51;11.60;;;2.20;;
7029;SDS011;3556;53.500;10.176;2023-06-01T12:19:17;13.63;;;3.17;;
7029;SDS011;3556;53.500;10.176;2023-06-01T12:22:16;6.20;;;2.30;;
7029;SDS011;3556;53.500;10.176;2023-06-01T12:24:34;10.30;;;3.00;;
7029;SDS011;3556;53.500;10.176;2023-06-01T12:27:00;10.60;;;2.20;;
7029;SDS011;3556;53.500;10.176;2023-06-01T12:29:34;9.50;;;2.53;;
7029;SDS011;3556;53.500;10.176;2023-06-01T12:32:01;5.23;;;2.20;;
7029;SDS011;3556;53.500;10.176;2023-06-01T12:34:27;13.70;;;2.50;;
7029;SDS011;3556;53.500;10.176;2023-06-01T12:36:52;10.17;;;2.70;;
7029;SDS011;3556;53.500;10.176;2023-06-01T12:39:24;10.50;;;2.33;;
7029;SDS011;3556;53.500;10.176;2023-06-01T12:42:01;7.30;;;2.27;;
7029;SDS011;3556;53.500;10.176;2023-06-01T12:44:28;5.50;;;1.90;;
7029;SDS011;3556;53.500;10.176;2023-06-01T12:46:57;13.43;;;2.10;;
7029;SDS011;3556;53.500;10.176;2023-06-01T12:49:24;7.10;;;2.20;;
7029;SDS011;3556;53.500;10.176;2023-06-01T12:51:49;11.17;;;2.37;;
7029;SDS011;3556;53.500;10.176;2023-06-01T12:54:15;11.13;;;2.50;;
7029;SDS011;3556;53.500;10.176;2023-06-01T12:56:42;7.70;;;2.20;;
7029;SDS011;3556;53.500;10.176;2023-06-01T12:59:08;4.53;;;1.60;;
7029;SDS011;3556;53.500;10.176;2023-06-01T13:01:33;12.93;;;2.27;;
7029;SDS011;3556;53.500;10.176;2023-06-01T13:03:59;9.97;;;2.57;;
7029;SDS011;3556;53.500;10.176;2023-06-01T13:06:25;7.10;;;1.97;;
7029;SDS011;3556;53.500;10.176;2023-06-01T13:08:52;11.50;;;2.00;;
7029;SDS011;3556;53.500;10.176;2023-06-01T13:11:17;11.33;;;2.00;;
7029;SDS011;3556;53.500;10.176;2023-06-01T13:13:43;11.00;;;2.03;;
7029;SDS011;3556;53.500;10.176;2023-06-01T13:16:10;10.13;;;2.20;;
7029;SDS011;3556;53.500;10.176;2023-06-01T13:18:36;8.00;;;1.87;;
7029;SDS011;3556;53.500;10.176;2023-06-01T13:21:01;11.30;;;1.60;;
7029;SDS011;3556;53.500;10.176;2023-06-01T13:23:27;5.33;;;1.60;;
7029;SDS011;3556;53.500;10.176;2023-06-01T13:25:53;8.40;;;2.07;;
7029;SDS011;3556;53.500;10.176;2023-06-01T13:28:19;13.13;;;2.10;;
7029;SDS011;3556;53.500;10.176;2023-06-01T13:30:44;13.07;;;2.00;;
7029;SDS011;3556;53.500;10.176;2023-06-01T13:33:10;8.43;;;1.80;;
7029;SDS011;3556;53.500;10.176;2023-06-01T13:35:36;11.70;;;2.27;;
7029;SDS011;3556;53.500;10.176;2023-06-01T13:38:01;5.20;;;1.80;;
7029;SDS011;3556;53.500;10.176;2023-06-01T13:40:27;9.80;;;2.50;;
7029;SDS011;3556;53.500;10.176;2023-06-01T13:42:53;14.50;;;2.50;;
7029;SDS011;3556;53.500;10.176;2023-06-01T13:45:19;8.60;;;1.97;;
7029;SDS011;3556;53.500;10.176;2023-06-01T13:47:46;7.27;;;1.80;;
7029;SDS011;3556;53.500;10.176;2023-06-01T13:50:12;12.50;;;1.90;;
7029;SDS011;3556;53.500;10.176;2023-06-01T13:52:39;13.30;;;2.13;;
7029;SDS011;3556;53.500;10.176;2023-06-01T13:55:05;7.00;;;1.83;;
7029;SDS011;3556;53.500;10.176;2023-06-01T13:57:31;5.93;;;1.70;;
7029;SDS011;3556;53.500;10.176;2023-06-01T13:59:57;10.00;;;2.17;;
7029;SDS011;3556;53.500;10.176;2023-06-01T14:02:23;8.10;;;1.90;;
7029;SDS011;3556;53.500;10.176;2023-06-01T14:04:49;9.27;;;1.80;;
7029;SDS011;3556;53.500;10.176;2023-06-01T14:07:14;8.13;;;2.23;;
7029;SDS011;3556;53.500;10.176;2023-06-01T14:09:40;15.20;;;2.20;;
7029;SDS011;3556;53.500;10.176;2023-06-01T14:12:06;8.40;;;2.10;;
7029;SDS011;3556;53.500;10.176;2023-06-01T14:14:32;10.03;;;2.30;;
7029;SDS011;3556;53.500;10.176;2023-06-01T14:16:57;9.50;;;1.97;;
7029;SDS011;3556;53.500;10.176;2023-06-01T14:19:23;19.83;;;2.33;;
7029;SDS011;3556;53.500;10.176;2023-06-01T14:21:51;12.03;;;2.23;;
7029;SDS011;3556;53.500;10.176;2023-06-01T14:24:17;11.10;;;2.63;;
7029;SDS011;3556;53.500;10.176;2023-06-01T14:26:43;9.17;;;2.10;;
7029;SDS011;3556;53.500;10.176;2023-06-01T14:29:09;16.33;;;2.10;;
7029;SDS011;3556;53.500;10.176;2023-06-01T14:31:34;14.60;;;1.93;;
7029;SDS011;3556;53.500;10.176;2023-06-01T14:34:00;8.97;;;2.07;;
7029;SDS011;3556;53.500;10.176;2023-06-01T14:36:25;9.10;;;2.10;;
7029;SDS011;3556;53.500;10.176;2023-06-01T14:38:51;16.00;;;2.67;;
7029;SDS011;3556;53.500;10.176;2023-06-01T14:41:17;7.23;;;1.80;;
7029;SDS011;3556;53.500;10.176;2023-06-01T14:43:42;9.40;;;1.63;;
7029;SDS011;3556;53.500;10.176;2023-06-01T14:46:08;7.80;;;2.43;;
7029;SDS011;3556;53.500;10.176;2023-06-01T14:48:33;7.47;;;1.70;;
7029;SDS011;3556;53.500;10.176;2023-06-01T14:50:59;8.17;;;2.07;;
7029;SDS011;3556;53.500;10.176;2023-06-01T14:53:24;19.90;;;2.77;;
7029;SDS011;3556;53.500;10.176;2023-06-01T14:55:50;13.57;;;2.30;;
7029;SDS011;3556;53.500;10.176;2023-06-01T14:58:16;9.60;;;1.80;;
7029;SDS011;3556;53.500;10.176;2023-06-01T15:00:41;7.20;;;2.00;;
7029;SDS011;3556;53.500;10.176;2023-06-01T15:03:07;12.40;;;2.00;;
7029;SDS011;3556;53.500;10.176;2023-06-01T15:05:33;11.07;;;2.53;;
7029;SDS011;3556;53.500;10.176;2023-06-01T15:07:59;15.80;;;2.13;;
7029;SDS011;3556;53.500;10.176;2023-06-01T15:10:25;14.70;;;2.10;;
7029;SDS011;3556;53.500;10.176;2023-06-01T15:12:51;9.07;;;2.03;;
7029;SDS011;3556;53.500;10.176;2023-06-01T15:15:17;16.10;;;2.40;;
7029;SDS011;3556;53.500;10.176;2023-06-01T15:17:42;14.33;;;3.07;;
7029;SDS011;3556;53.500;10.176;2023-06-01T15:20:09;17.07;;;2.60;;
7029;SDS011;3556;53.500;10.176;2023-06-01T15:22:35;18.40;;;2.37;;
7029;SDS011;3556;53.500;10.176;2023-06-01T15:25:00;13.00;;;2.10;;
7029;SDS011;3556;53.500;10.176;2023-06-01T15:27:26;14.90;;;2.40;;
7029;SDS011;3556;53.500;10.176;2023-06-01T15:29:51;12.03;;;2.50;;
7029;SDS011;3556;53.500;10.176;2023-06-01T15:32:17;22.57;;;3.23;;
7029;SDS011;3556;53.500;10.176;2023-06-01T15:34:43;12.93;;;3.00;;
7029;SDS011;3556;53.500;10.176;2023-06-01T15:37:09;16.50;;;3.87;;
7029;SDS011;3556;53.500;10.176;2023-06-01T15:39:35;10.70;;;2.50;;
7029;SDS011;3556;53.500;10.176;2023-06-01T15:42:08;15.83;;;2.70;;